Time;durP1;ratioP1;P1;durP2;ratioP2;P2;SDS_P1;SDS_P2;PMS_P1;PMS_P2;Temp;Humidity;BMP_temperature;BMP_pressure;BME280_temperature;BME280_humidity;BME280_pressure;Samples;Min_cycle;Max_cycle;Signal;HPM_P1;HPM_P2
2023/10/20 00:00:22;;;;;;;1.53;0.90;;;15.80;98.20;;;;;;5000928;28;20959;-77
2023/10/20 00:02:51;;;;;;;1.53;1.00;;;15.80;98.20;;;;;;4993928;28;20940;-77
2023/10/20 00:05:18;;;;;;;1.53;0.90;;;15.80;98.20;;;;;;4994657;28;20463;-79
2023/10/20 00:07:46;;;;;;;1.50;0.90;;;15.80;98.20;;;;;;5009372;28;20856;-78
2023/10/20 00:10:12;;;;;;;1.50;0.90;;;15.80;98.20;;;;;;4996858;28;20493;-78
2023/10/20 00:12:39;;;;;;;1.57;1.00;;;15.80;98.20;;;;;;5006434;28;20491;-77
2023/10/20 00:15:09;;;;;;;1.50;0.90;;;15.80;98.20;;;;;;4994966;28;20519;-78
2023/10/20 00:17:36;;;;;;;1.50;1.00;;;15.80;98.20;;;;;;5009121;28;20495;-77
2023/10/20 00:20:04;;;;;;;1.50;1.00;;;15.80;98.20;;;;;;5000697;28;20466;-78
2023/10/20 00:22:31;;;;;;;1.57;1.00;;;15.80;98.20;;;;;;5010150;28;20475;-78
2023/10/20 00:24:58;;;;;;;1.50;1.00;;;15.80;98.20;;;;;;4998711;28;20943;-78
2023/10/20 00:27:24;;;;;;;1.50;1.00;;;15.80;98.20;;;;;;5006208;28;20526;-78
2023/10/20 00:29:51;;;;;;;1.53;1.00;;;15.80;98.20;;;;;;5003624;28;20464;-78
2023/10/20 00:32:19;;;;;;;1.50;0.90;;;15.80;98.20;;;;;;5003467;28;20487;-77
2023/10/20 00:34:45;;;;;;;1.50;1.00;;;15.90;98.20;;;;;;5003424;28;20476;-78
2023/10/20 00:37:14;;;;;;;1.53;0.90;;;15.90;98.20;;;;;;4999804;28;20856;-78
2023/10/20 00:39:40;;;;;;;1.50;0.93;;;15.80;98.20;;;;;;5002209;28;20476;-79
2023/10/20 00:42:07;;;;;;;1.50;0.90;;;15.90;98.20;;;;;;5000489;28;20480;-78
2023/10/20 00:44:34;;;;;;;1.50;0.97;;;15.90;98.20;;;;;;5004730;28;20564;-78
2023/10/20 00:47:01;;;;;;;1.53;1.00;;;15.90;98.20;;;;;;5000232;28;20489;-79
2023/10/20 00:49:28;;;;;;;1.57;1.00;;;15.90;98.20;;;;;;5008397;28;20942;-78
2023/10/20 00:51:55;;;;;;;1.60;1.10;;;15.90;98.20;;;;;;4999687;28;20491;-78
2023/10/20 00:54:23;;;;;;;1.60;1.10;;;15.90;98.20;;;;;;5007779;28;20485;-78
2023/10/20 00:56:51;;;;;;;1.60;1.00;;;15.90;98.20;;;;;;4994844;28;20491;-78
2023/10/20 00:59:17;;;;;;;1.50;0.93;;;15.90;98.20;;;;;;5011128;28;20467;-79
2023/10/20 01:01:44;;;;;;;1.60;1.00;;;15.90;98.20;;;;;;4991273;28;20547;-79
2023/10/20 01:04:11;;;;;;;1.60;1.10;;;15.90;98.20;;;;;;4999379;28;20845;-79
2023/10/20 01:06:38;;;;;;;1.50;1.00;;;15.90;98.20;;;;;;4998124;28;21092;-79
2023/10/20 01:09:05;;;;;;;1.50;1.00;;;15.90;98.20;;;;;;5013938;28;20460;-78
2023/10/20 01:11:33;;;;;;;1.50;1.00;;;15.80;98.20;;;;;;5003566;28;20908;-78
2023/10/20 01:14:01;;;;;;;1.90;1.77;;;15.90;98.20;;;;;;5019439;28;20483;-79
2023/10/20 01:16:27;;;;;;;1.50;0.90;;;15.90;98.20;;;;;;4996115;28;20553;-77
2023/10/20 01:18:55;;;;;;;1.60;1.13;;;15.80;98.20;;;;;;5014121;28;20468;-77
2023/10/20 01:21:22;;;;;;;1.50;0.90;;;15.90;98.20;;;;;;4991375;28;20929;-77
2023/10/20 01:23:54;;;;;;;1.60;1.00;;;15.80;98.20;;;;;;4999152;28;20491;-77
2023/10/20 01:26:21;;;;;;;1.60;1.30;;;15.80;98.20;;;;;;5000614;28;20478;-77
2023/10/20 01:28:48;;;;;;;1.57;1.00;;;15.80;98.20;;;;;;5019030;28;20464;-77
2023/10/20 01:31:14;;;;;;;1.60;1.00;;;15.80;98.20;;;;;;4994674;28;20484;-77
2023/10/20 01:33:41;;;;;;;1.70;1.30;;;15.80;98.20;;;;;;5002382;28;20492;-78
2023/10/20 01:36:08;;;;;;;1.50;1.00;;;15.80;98.20;;;;;;4996571;28;20480;-79
2023/10/20 01:38:35;;;;;;;1.50;0.90;;;15.90;98.20;;;;;;5002883;28;20467;-79
2023/10/20 01:41:03;;;;;;;1.53;1.00;;;15.90;98.20;;;;;;4998254;28;20472;-75
2023/10/20 01:43:29;;;;;;;1.53;1.00;;;15.90;98.20;;;;;;5019020;28;20494;-79
2023/10/20 01:45:56;;;;;;;1.57;1.00;;;15.90;98.20;;;;;;4995588;28;20475;-79
2023/10/20 01:48:23;;;;;;;1.93;1.73;;;15.90;98.20;;;;;;5021773;28;21140;-79
2023/10/20 01:50:50;;;;;;;1.50;0.90;;;15.90;98.20;;;;;;4997491;28;20484;-78
2023/10/20 01:53:16;;;;;;;1.50;1.00;;;15.90;98.20;;;;;;5023562;28;20495;-78
2023/10/20 01:55:49;;;;;;;1.60;1.00;;;15.90;98.20;;;;;;5003160;28;20482;-79
2023/10/20 01:58:17;;;;;;;1.83;1.63;;;15.90;98.20;;;;;;4995246;28;20476;-79
2023/10/20 02:00:45;;;;;;;1.53;1.00;;;15.90;98.20;;;;;;4999679;28;20514;-78
2023/10/20 02:03:11;;;;;;;1.53;0.90;;;15.90;98.20;;;;;;4990536;28;20566;-78
2023/10/20 02:05:38;;;;;;;1.57;1.00;;;15.90;98.20;;;;;;5005861;28;20471;-78
2023/10/20 02:08:06;;;;;;;1.57;1.00;;;15.90;98.20;;;;;;5012050;28;20490;-76
2023/10/20 02:10:33;;;;;;;1.60;1.00;;;15.90;98.20;;;;;;5006230;28;20518;-75
2023/10/20 02:13:00;;;;;;;1.57;0.90;;;15.90;98.20;;;;;;4995402;28;20515;-76
2023/10/20 02:15:28;;;;;;;1.50;1.00;;;15.90;98.20;;;;;;5004744;28;20471;-76
2023/10/20 02:17:55;;;;;;;1.53;0.97;;;15.90;98.20;;;;;;4988313;28;20488;-76
2023/10/20 02:20:23;;;;;;;1.53;0.97;;;15.90;98.20;;;;;;5001408;28;20465;-75
2023/10/20 02:22:50;;;;;;;1.50;1.00;;;15.90;98.20;;;;;;5011303;28;20494;-77
2023/10/20 02:25:17;;;;;;;1.50;1.00;;;15.90;98.20;;;;;;5001392;28;20532;-77
2023/10/20 02:27:45;;;;;;;1.60;1.00;;;15.90;98.20;;;;;;5013286;28;20947;-76
2023/10/20 02:30:14;;;;;;;1.50;0.90;;;15.90;98.20;;;;;;5004054;28;20471;-76
2023/10/20 02:32:42;;;;;;;1.50;0.90;;;15.90;98.20;;;;;;5011389;28;21019;-76
2023/10/20 02:35:11;;;;;;;1.50;0.90;;;16.00;98.20;;;;;;4999528;28;20472;-76
2023/10/20 02:37:37;;;;;;;1.60;1.20;;;15.90;98.20;;;;;;5011627;28;20487;-76
2023/10/20 02:40:05;;;;;;;1.60;1.07;;;16.00;98.20;;;;;;5005988;28;20476;-78
2023/10/20 02:42:32;;;;;;;1.50;0.90;;;16.00;98.20;;;;;;5009885;28;20502;-78
2023/10/20 02:44:59;;;;;;;1.60;1.10;;;15.90;98.20;;;;;;5002034;28;20464;-77
2023/10/20 02:47:26;;;;;;;1.50;1.00;;;15.90;98.20;;;;;;5008656;28;20752;-76
2023/10/20 02:49:56;;;;;;;1.53;0.97;;;15.90;98.20;;;;;;5006888;28;20456;-76
2023/10/20 02:52:22;;;;;;;1.53;1.00;;;15.90;98.20;;;;;;5007505;28;20526;-76
2023/10/20 02:54:53;;;;;;;1.50;1.00;;;15.90;98.20;;;;;;5006127;28;20495;-77
2023/10/20 02:57:20;;;;;;;1.50;1.00;;;15.90;98.20;;;;;;5007768;28;20813;-76
2023/10/20 02:59:47;;;;;;;1.57;1.00;;;15.90;98.20;;;;;;5006831;28;20466;-76
2023/10/20 03:02:14;;;;;;;1.53;1.00;;;15.90;98.20;;;;;;5006144;28;20479;-76
2023/10/20 03:04:41;;;;;;;1.53;1.00;;;15.90;98.20;;;;;;5004722;28;20488;-76
2023/10/20 03:07:09;;;;;;;1.57;0.90;;;15.90;98.20;;;;;;5005699;28;20486;-77
2023/10/20 03:09:36;;;;;;;1.57;1.00;;;16.00;98.20;;;;;;5009207;28;20464;-77
2023/10/20 03:12:03;;;;;;;1.50;0.90;;;16.00;98.20;;;;;;5000144;28;20483;-76
2023/10/20 03:14:30;;;;;;;1.53;1.00;;;16.00;98.20;;;;;;5007420;28;20484;-76
2023/10/20 03:16:57;;;;;;;1.53;0.90;;;16.00;98.20;;;;;;5004233;28;20549;-76
2023/10/20 03:19:24;;;;;;;1.60;0.93;;;16.00;98.20;;;;;;5010540;28;20465;-77
2023/10/20 03:21:51;;;;;;;1.53;1.00;;;16.00;98.20;;;;;;5004238;28;20475;-76
2023/10/20 03:24:19;;;;;;;1.60;1.00;;;16.00;98.20;;;;;;5012409;28;20489;-79
2023/10/20 03:26:46;;;;;;;1.50;0.90;;;16.00;98.20;;;;;;5001311;28;20487;-78
2023/10/20 03:29:13;;;;;;;1.57;0.90;;;16.00;98.20;;;;;;5012520;28;20645;-79
2023/10/20 03:31:39;;;;;;;1.57;1.03;;;16.10;98.20;;;;;;5036694;22;20992;-81
2023/10/20 03:34:06;;;;;;;1.50;0.90;;;16.10;98.20;;;;;;5045738;28;20470;-80
2023/10/20 03:36:33;;;;;;;1.57;1.00;;;16.10;98.20;;;;;;5037034;28;20544;-81
2023/10/20 03:39:00;;;;;;;1.57;1.00;;;16.10;98.20;;;;;;5053540;28;20466;-81
2023/10/20 03:41:29;;;;;;;1.60;1.00;;;16.10;98.20;;;;;;5033854;28;21317;-81
2023/10/20 03:43:55;;;;;;;1.60;1.00;;;16.10;98.20;;;;;;5041570;28;20503;-81
2023/10/20 03:46:23;;;;;;;1.60;1.00;;;16.20;98.20;;;;;;5035787;28;20571;-81
2023/10/20 03:48:50;;;;;;;1.57;1.00;;;16.20;98.20;;;;;;5048833;28;20470;-82
2023/10/20 03:51:18;;;;;;;1.57;0.90;;;16.20;98.20;;;;;;5034139;28;20542;-81
2023/10/20 03:53:52;;;;;;;1.53;1.00;;;16.20;98.20;;;;;;5064233;28;20463;-82
2023/10/20 03:56:22;;;;;;;1.50;1.00;;;16.20;98.20;;;;;;5032305;28;20553;-81
2023/10/20 03:58:50;;;;;;;1.60;1.00;;;16.20;98.20;;;;;;5052163;28;20459;-81
2023/10/20 04:01:17;;;;;;;1.60;1.20;;;16.20;98.20;;;;;;5028611;28;20479;-82
2023/10/20 04:03:49;;;;;;;1.50;0.90;;;16.20;98.20;;;;;;5038935;28;21119;-81
2023/10/20 04:06:16;;;;;;;1.50;0.90;;;16.20;98.20;;;;;;5030813;28;20542;-80
2023/10/20 04:08:43;;;;;;;1.57;1.00;;;16.20;98.20;;;;;;5042214;28;20464;-82
2023/10/20 04:11:12;;;;;;;1.50;0.90;;;16.30;98.20;;;;;;5031161;28;20496;-82
2023/10/20 04:13:39;;;;;;;1.50;1.00;;;16.30;98.20;;;;;;5057371;28;20454;-81
2023/10/20 04:16:13;;;;;;;1.53;0.90;;;16.30;98.20;;;;;;5033867;28;20884;-81
2023/10/20 04:18:40;;;;;;;1.53;0.90;;;16.30;98.20;;;;;;5054661;28;20463;-81
2023/10/20 04:21:06;;;;;;;1.53;0.90;;;16.30;98.20;;;;;;5036982;28;20546;-81
2023/10/20 04:23:33;;;;;;;1.53;1.00;;;16.30;98.20;;;;;;5036820;28;20459;-81
2023/10/20 04:26:00;;;;;;;1.97;1.33;;;16.30;98.20;;;;;;5022806;28;20555;-81
2023/10/20 04:28:32;;;;;;;1.53;0.97;;;16.20;98.20;;;;;;5056512;28;20492;-83
2023/10/20 04:42:22;;;;;;;1.57;1.00;;;16.20;98.20;;;;;;5023676;28;20509;-79
2023/10/20 04:52:58;;;;;;;1.50;0.90;;;16.20;98.20;;;;;;5024988;28;20504;-78
2023/10/20 04:58:23;;;;;;;1.50;0.90;;;16.10;98.20;;;;;;5036688;28;20463;-78
2023/10/20 05:00:59;;;;;;;1.53;0.90;;;16.10;98.20;;;;;;5022125;28;20550;-78
2023/10/20 05:03:44;;;;;;;1.57;1.00;;;16.10;98.20;;;;;;5047450;28;20457;-78
2023/10/20 05:06:22;;;;;;;1.50;0.90;;;16.10;98.20;;;;;;5022676;28;20489;-78
2023/10/20 05:08:50;;;;;;;1.57;0.90;;;16.10;98.20;;;;;;5048084;28;20474;-79
2023/10/20 05:11:16;;;;;;;1.50;1.00;;;16.10;98.20;;;;;;5028914;28;21154;-78
2023/10/20 05:13:43;;;;;;;1.50;1.00;;;16.10;98.20;;;;;;5046102;28;20488;-78
2023/10/20 05:16:10;;;;;;;1.50;0.90;;;16.10;98.20;;;;;;5026785;28;21453;-79
2023/10/20 05:18:38;;;;;;;1.50;0.90;;;16.10;98.20;;;;;;5034718;28;20960;-78
2023/10/20 05:21:05;;;;;;;1.53;1.00;;;16.10;98.20;;;;;;5026491;28;20504;-78
2023/10/20 05:23:34;;;;;;;1.53;0.90;;;16.10;98.20;;;;;;5022672;28;20504;-79
2023/10/20 05:26:03;;;;;;;1.57;1.00;;;16.10;98.20;;;;;;5031297;28;20589;-80
2023/10/20 05:28:30;;;;;;;1.53;1.00;;;16.10;98.20;;;;;;5045791;28;20913;-80
2023/10/20 05:30:58;;;;;;;1.50;0.90;;;16.10;98.20;;;;;;5021015;28;20478;-80
2023/10/20 05:33:25;;;;;;;1.50;1.00;;;16.00;98.20;;;;;;5022304;28;20482;-77
2023/10/20 05:35:53;;;;;;;1.57;1.00;;;16.00;98.20;;;;;;5014076;28;20471;-77
2023/10/20 05:38:20;;;;;;;1.57;0.90;;;16.00;98.20;;;;;;5043689;28;20550;-76
2023/10/20 05:40:58;;;;;;;1.57;1.00;;;16.00;98.20;;;;;;5025337;28;20770;-77
2023/10/20 05:43:26;;;;;;;1.53;1.00;;;16.00;98.20;;;;;;5044020;28;21074;-79
2023/10/20 05:45:52;;;;;;;1.50;1.00;;;16.00;98.20;;;;;;5016250;28;20458;-77
2023/10/20 05:48:19;;;;;;;1.57;1.00;;;15.90;98.20;;;;;;5040132;28;20490;-79
2023/10/20 05:50:46;;;;;;;1.67;1.20;;;15.90;98.20;;;;;;5030256;28;20525;-80
2023/10/20 05:53:14;;;;;;;1.50;0.90;;;15.90;98.20;;;;;;5023371;28;20493;-79
2023/10/20 05:55:41;;;;;;;1.53;0.90;;;15.90;98.20;;;;;;5031970;28;20501;-79
2023/10/20 05:58:09;;;;;;;1.50;1.00;;;15.90;98.20;;;;;;5026467;28;20471;-79
2023/10/20 06:00:37;;;;;;;1.50;0.90;;;15.90;98.20;;;;;;5036198;28;20486;-80
2023/10/20 06:03:06;;;;;;;1.50;0.90;;;15.90;98.20;;;;;;5035009;28;20635;-79
2023/10/20 06:05:33;;;;;;;1.57;1.00;;;15.90;98.20;;;;;;5038948;28;20486;-81
2023/10/20 06:08:00;;;;;;;1.53;1.00;;;15.90;98.20;;;;;;5048794;28;20478;-81
2023/10/20 06:10:27;;;;;;;1.97;1.77;;;15.90;98.20;;;;;;5046377;28;20482;-79
2023/10/20 06:12:55;;;;;;;1.57;1.00;;;15.90;98.20;;;;;;5047822;28;20470;-79
2023/10/20 06:15:23;;;;;;;1.53;0.97;;;15.90;98.20;;;;;;5035593;28;20482;-78
2023/10/20 06:17:51;;;;;;;1.50;0.93;;;15.90;98.20;;;;;;5039771;28;20482;-78
2023/10/20 06:20:19;;;;;;;1.53;0.90;;;15.90;98.20;;;;;;5030384;28;20487;-79
2023/10/20 06:22:46;;;;;;;1.53;1.00;;;15.80;98.20;;;;;;5039580;28;20617;-78
2023/10/20 06:25:13;;;;;;;1.50;0.97;;;15.80;98.20;;;;;;5045674;28;20562;-79
2023/10/20 06:27:43;;;;;;;1.50;1.00;;;15.80;98.20;;;;;;5043915;28;20489;-78
2023/10/20 06:30:19;;;;;;;1.50;0.90;;;15.80;98.20;;;;;;5048731;28;20539;-78
2023/10/20 06:32:56;;;;;;;1.53;1.00;;;15.80;98.20;;;;;;5053015;28;20843;-78
2023/10/20 06:35:32;;;;;;;1.50;1.00;;;15.80;98.20;;;;;;5053243;28;20454;-78
2023/10/20 06:38:11;;;;;;;2.37;1.60;;;15.80;98.20;;;;;;5038053;28;20485;-78
2023/10/20 06:40:39;;;;;;;1.50;1.00;;;15.80;98.20;;;;;;5039617;28;20978;-77
2023/10/20 06:43:06;;;;;;;1.60;0.90;;;15.80;98.20;;;;;;5041367;28;20478;-78
2023/10/20 06:45:34;;;;;;;1.57;1.00;;;15.80;98.20;;;;;;5038049;28;20531;-77
2023/10/20 06:48:02;;;;;;;1.60;1.10;;;15.80;98.20;;;;;;5057193;28;21057;-78
2023/10/20 06:50:28;;;;;;;1.53;0.90;;;15.80;98.20;;;;;;5050937;28;20513;-78
2023/10/20 06:52:55;;;;;;;1.50;1.00;;;15.80;98.20;;;;;;5044380;28;20477;-78
2023/10/20 06:55:22;;;;;;;1.53;1.00;;;15.80;98.20;;;;;;5048679;28;21187;-78
2023/10/20 06:57:49;;;;;;;1.60;1.00;;;15.80;98.20;;;;;;5032026;28;20478;-78
2023/10/20 07:00:17;;;;;;;1.50;1.00;;;15.80;98.20;;;;;;5045134;28;20484;-79
2023/10/20 07:02:45;;;;;;;1.50;1.00;;;15.70;98.20;;;;;;5038892;28;20478;-78
2023/10/20 07:05:13;;;;;;;1.50;1.00;;;15.70;98.20;;;;;;5038401;28;21044;-78
2023/10/20 07:07:40;;;;;;;1.50;0.90;;;15.70;98.20;;;;;;5040241;28;20477;-77
2023/10/20 07:10:10;;;;;;;1.53;1.00;;;15.70;98.20;;;;;;5041956;28;20502;-78
2023/10/20 07:12:37;;;;;;;1.50;0.90;;;15.70;98.20;;;;;;5044981;28;20538;-78
2023/10/20 07:15:06;;;;;;;1.57;1.00;;;15.70;98.20;;;;;;5044339;28;20474;-77
2023/10/20 07:17:33;;;;;;;1.53;1.00;;;15.70;98.20;;;;;;5046866;28;20481;-79
2023/10/20 07:20:00;;;;;;;1.57;0.90;;;15.70;98.20;;;;;;5042634;28;20463;-78
2023/10/20 07:22:28;;;;;;;1.50;1.00;;;15.70;98.20;;;;;;5032780;28;20470;-77
2023/10/20 07:24:55;;;;;;;1.57;1.00;;;15.70;98.20;;;;;;5041106;28;20745;-78
2023/10/20 07:27:22;;;;;;;1.57;1.00;;;15.70;98.20;;;;;;5044073;28;20550;-77
2023/10/20 07:29:49;;;;;;;1.57;0.90;;;15.70;98.20;;;;;;5051691;28;20477;-78
2023/10/20 07:32:17;;;;;;;1.57;1.00;;;15.60;98.20;;;;;;5043035;28;20470;-78
2023/10/20 07:34:43;;;;;;;1.57;0.93;;;15.60;98.20;;;;;;5055524;28;20458;-78
2023/10/20 07:37:10;;;;;;;1.53;1.00;;;15.60;98.20;;;;;;5036800;28;20650;-78
2023/10/20 07:39:38;;;;;;;1.53;1.00;;;15.60;98.20;;;;;;5044581;28;20849;-79
2023/10/20 07:42:05;;;;;;;1.57;0.90;;;15.70;98.20;;;;;;5036562;28;20478;-78
2023/10/20 07:44:33;;;;;;;1.50;1.00;;;15.70;98.20;;;;;;5046998;28;20462;-80
2023/10/20 07:47:00;;;;;;;1.50;0.90;;;15.70;98.20;;;;;;5043799;28;20487;-78
2023/10/20 07:49:27;;;;;;;1.57;1.00;;;15.80;98.20;;;;;;5045759;28;20514;-77
2023/10/20 07:51:54;;;;;;;1.50;0.90;;;15.80;98.20;;;;;;5028460;28;20910;-78
2023/10/20 07:54:20;;;;;;;1.53;1.00;;;15.80;98.20;;;;;;5044304;28;20513;-79
2023/10/20 07:56:49;;;;;;;1.53;1.00;;;15.80;98.20;;;;;;5038035;28;20488;-79
2023/10/20 07:59:17;;;;;;;1.60;1.20;;;15.80;98.20;;;;;;5051865;28;20549;-77
2023/10/20 08:01:44;;;;;;;1.50;0.90;;;15.80;98.20;;;;;;5022556;28;20534;-77
2023/10/20 08:04:11;;;;;;;1.53;0.97;;;15.80;98.20;;;;;;5034518;28;20459;-77
2023/10/20 08:06:38;;;;;;;1.50;0.93;;;15.80;98.20;;;;;;5014138;28;21224;-78
2023/10/20 08:09:05;;;;;;;1.50;0.97;;;15.80;98.20;;;;;;5017125;28;20869;-77
2023/10/20 08:11:32;;;;;;;1.60;1.00;;;15.80;98.20;;;;;;5014812;28;20483;-77
2023/10/20 08:14:00;;;;;;;1.53;1.00;;;15.80;98.20;;;;;;5034695;28;20578;-77
2023/10/20 08:16:27;;;;;;;1.50;1.00;;;15.80;98.20;;;;;;5019407;28;20931;-76
2023/10/20 08:18:54;;;;;;;1.57;1.00;;;15.80;98.20;;;;;;5029938;28;20463;-77
2023/10/20 08:21:26;;;;;;;1.50;1.00;;;15.80;98.20;;;;;;5020083;28;21063;-76
2023/10/20 08:23:52;;;;;;;1.60;1.10;;;15.80;98.20;;;;;;5032089;28;20466;-76
2023/10/20 08:26:20;;;;;;;1.50;1.00;;;15.80;98.20;;;;;;5018155;28;20601;-76
2023/10/20 08:28:46;;;;;;;1.50;0.90;;;15.80;98.20;;;;;;5031258;28;20467;-77
2023/10/20 08:31:16;;;;;;;1.50;0.90;;;15.80;98.20;;;;;;5017305;28;20581;-77
2023/10/20 08:33:43;;;;;;;1.57;1.00;;;15.90;98.20;;;;;;5034603;28;20488;-76
2023/10/20 08:36:12;;;;;;;1.53;1.00;;;15.90;98.20;;;;;;5014634;28;20490;-76
2023/10/20 08:38:40;;;;;;;1.60;1.10;;;15.90;98.20;;;;;;5034262;28;20969;-77
2023/10/20 08:41:11;;;;;;;1.60;1.00;;;15.90;98.20;;;;;;5020894;28;20911;-77
2023/10/20 08:43:40;;;;;;;1.50;0.90;;;15.90;98.20;;;;;;5039366;28;20459;-77
2023/10/20 08:46:08;;;;;;;1.50;1.00;;;15.90;98.20;;;;;;5023387;28;20668;-77
2023/10/20 08:48:37;;;;;;;1.60;1.00;;;15.90;98.20;;;;;;5043023;28;20463;-77
2023/10/20 08:51:05;;;;;;;1.50;1.00;;;15.90;98.20;;;;;;5024864;28;20479;-77
2023/10/20 08:53:34;;;;;;;1.50;1.00;;;15.90;98.20;;;;;;5038220;28;20577;-77
2023/10/20 08:56:01;;;;;;;1.50;1.00;;;16.00;98.20;;;;;;5014291;28;20708;-77
2023/10/20 08:58:29;;;;;;;1.57;1.00;;;16.00;98.20;;;;;;5038814;28;20466;-77
2023/10/20 09:00:57;;;;;;;1.57;1.00;;;16.00;98.20;;;;;;5019367;28;20474;-76
2023/10/20 09:03:25;;;;;;;1.50;0.90;;;16.00;98.20;;;;;;5039641;28;20546;-77
2023/10/20 09:05:53;;;;;;;1.50;0.90;;;16.00;98.20;;;;;;5020338;28;20459;-76
2023/10/20 09:08:21;;;;;;;1.50;0.90;;;15.90;98.20;;;;;;5033908;28;20660;-77
2023/10/20 09:10:49;;;;;;;1.50;1.00;;;15.90;98.20;;;;;;5019176;28;20912;-77
2023/10/20 09:13:15;;;;;;;1.50;0.90;;;15.90;98.20;;;;;;5031765;28;20490;-77
2023/10/20 09:15:42;;;;;;;1.50;1.00;;;15.90;98.20;;;;;;5028728;28;20447;-76
2023/10/20 09:18:10;;;;;;;1.50;1.00;;;15.90;98.20;;;;;;5015136;28;20493;-76
2023/10/20 09:20:37;;;;;;;1.53;1.00;;;15.90;98.20;;;;;;5025997;28;20487;-77
2023/10/20 09:23:11;;;;;;;1.53;0.93;;;15.80;98.20;;;;;;5031964;28;20478;-76
2023/10/20 09:25:38;;;;;;;1.50;1.00;;;15.80;98.20;;;;;;5029448;28;20463;-77
2023/10/20 09:28:05;;;;;;;1.53;1.00;;;15.80;98.20;;;;;;5032336;28;20561;-77
2023/10/20 09:30:33;;;;;;;1.57;1.00;;;15.80;98.20;;;;;;5022282;28;20530;-77
2023/10/20 09:33:00;;;;;;;1.57;0.97;;;15.80;98.20;;;;;;5026819;28;20483;-76
2023/10/20 09:35:29;;;;;;;1.50;1.00;;;15.80;98.20;;;;;;5024935;28;20563;-76
2023/10/20 09:38:00;;;;;;;1.53;1.00;;;15.80;98.20;;;;;;5035216;28;20481;-76
2023/10/20 09:40:28;;;;;;;1.50;0.93;;;15.80;98.20;;;;;;5030068;28;20522;-76
2023/10/20 09:43:10;;;;;;;1.50;0.90;;;15.80;98.20;;;;;;5037757;28;20515;-75
2023/10/20 09:45:41;;;;;;;1.53;0.90;;;15.80;98.20;;;;;;5026929;28;20463;-76
2023/10/20 09:48:16;;;;;;;1.53;0.90;;;15.80;98.20;;;;;;5028262;28;20495;-76
2023/10/20 09:50:46;;;;;;;1.60;1.00;;;15.80;98.20;;;;;;5031527;28;21015;-76
2023/10/20 09:53:13;;;;;;;1.57;1.00;;;15.80;98.20;;;;;;5017631;28;20483;-76
2023/10/20 09:55:42;;;;;;;1.53;0.90;;;15.80;98.20;;;;;;5030586;28;20482;-77
2023/10/20 09:58:08;;;;;;;1.50;0.97;;;15.90;98.20;;;;;;5037795;28;20635;-77
2023/10/20 10:00:36;;;;;;;1.50;0.90;;;15.90;98.20;;;;;;5029989;28;20495;-76
2023/10/20 10:03:03;;;;;;;1.53;0.93;;;15.90;98.20;;;;;;5028493;28;20483;-77
2023/10/20 10:05:31;;;;;;;1.50;0.90;;;15.80;98.20;;;;;;5031107;28;21037;-76
2023/10/20 10:08:07;;;;;;;1.57;0.90;;;15.80;98.20;;;;;;5025017;28;20515;-77
2023/10/20 10:10:35;;;;;;;1.50;0.90;;;15.80;98.20;;;;;;5028048;28;20920;-77
2023/10/20 10:13:05;;;;;;;1.53;0.97;;;15.80;98.20;;;;;;5034769;28;21171;-77
2023/10/20 10:15:38;;;;;;;1.70;1.00;;;15.90;98.20;;;;;;5030219;28;20494;-77
2023/10/20 10:18:10;;;;;;;1.50;0.90;;;15.90;98.20;;;;;;5030459;28;20487;-76
2023/10/20 10:20:43;;;;;;;1.60;1.00;;;15.90;98.20;;;;;;5028768;28;20486;-76
2023/10/20 10:23:12;;;;;;;1.50;0.90;;;15.90;98.20;;;;;;5035364;28;20490;-77
2023/10/20 10:25:41;;;;;;;1.53;1.00;;;15.90;98.20;;;;;;5030322;28;20891;-77
2023/10/20 10:28:13;;;;;;;1.60;1.20;;;15.90;98.20;;;;;;5034317;28;21001;-77
2023/10/20 10:30:41;;;;;;;1.57;0.90;;;15.90;98.20;;;;;;5030343;28;21018;-77
2023/10/20 10:33:09;;;;;;;1.50;1.00;;;16.00;98.20;;;;;;5031479;28;20590;-76
2023/10/20 10:35:38;;;;;;;1.57;0.97;;;16.00;98.20;;;;;;5039700;28;20471;-77
2023/10/20 10:38:06;;;;;;;1.53;0.97;;;16.10;98.20;;;;;;5026156;28;21242;-76
2023/10/20 10:40:34;;;;;;;1.53;1.00;;;16.10;98.20;;;;;;5033694;28;20491;-76
2023/10/20 10:43:01;;;;;;;1.60;1.10;;;16.00;98.20;;;;;;5026395;28;20818;-76
2023/10/20 10:45:31;;;;;;;1.57;1.00;;;16.10;98.20;;;;;;5030990;28;20467;-76
2023/10/20 10:48:05;;;;;;;1.60;1.00;;;16.10;98.20;;;;;;5026639;28;20566;-76
2023/10/20 10:50:33;;;;;;;1.53;1.00;;;16.20;98.20;;;;;;5025809;28;20798;-77
2023/10/20 10:53:00;;;;;;;1.57;1.00;;;16.20;98.20;;;;;;5026161;28;21414;-77
2023/10/20 10:55:28;;;;;;;1.50;0.90;;;16.30;98.20;;;;;;5026413;28;20491;-76
2023/10/20 10:57:54;;;;;;;1.53;0.90;;;16.30;98.20;;;;;;5030080;28;20497;-76
2023/10/20 11:00:22;;;;;;;1.50;0.90;;;16.30;98.20;;;;;;5024415;28;20479;-77
2023/10/20 11:02:51;;;;;;;1.57;1.00;;;16.30;98.20;;;;;;5031810;28;20497;-77
2023/10/20 11:05:18;;;;;;;1.57;1.00;;;16.30;98.20;;;;;;5025789;28;20860;-77
2023/10/20 11:08:02;;;;;;;1.50;0.90;;;16.30;98.20;;;;;;5024620;28;20479;-77
2023/10/20 11:10:29;;;;;;;1.53;0.90;;;16.20;98.20;;;;;;5031139;28;20488;-76
2023/10/20 11:12:56;;;;;;;1.50;0.93;;;16.20;98.20;;;;;;5036951;28;20485;-77
2023/10/20 11:15:28;;;;;;;1.53;1.00;;;16.20;98.20;;;;;;5033215;28;20521;-77
2023/10/20 11:17:58;;;;;;;1.57;1.00;;;16.10;98.20;;;;;;5035752;28;20535;-77
2023/10/20 11:20:25;;;;;;;1.50;0.90;;;16.10;98.20;;;;;;5031682;28;20483;-77
2023/10/20 11:22:55;;;;;;;1.53;0.90;;;16.10;98.20;;;;;;5033373;28;20494;-77
2023/10/20 11:25:24;;;;;;;1.53;0.90;;;16.00;98.20;;;;;;5025706;28;20912;-78
2023/10/20 11:27:54;;;;;;;1.50;1.00;;;16.00;98.20;;;;;;5018753;28;21070;-77
2023/10/20 11:30:25;;;;;;;1.53;1.00;;;16.00;98.20;;;;;;5026129;28;20499;-77
2023/10/20 11:32:54;;;;;;;1.53;0.90;;;16.00;98.20;;;;;;5028098;28;20478;-77
2023/10/20 11:35:24;;;;;;;1.50;0.90;;;16.10;98.20;;;;;;5022386;28;20488;-77
2023/10/20 11:37:52;;;;;;;1.70;1.27;;;16.10;98.20;;;;;;5023521;28;20475;-78
2023/10/20 11:40:19;;;;;;;1.53;1.00;;;16.00;98.20;;;;;;5023923;28;20483;-77
2023/10/20 11:42:45;;;;;;;1.57;0.97;;;16.00;98.20;;;;;;5027770;28;20496;-78
2023/10/20 11:45:12;;;;;;;1.50;0.90;;;16.00;98.20;;;;;;5029112;28;20467;-79
2023/10/20 11:47:39;;;;;;;1.50;1.00;;;16.00;98.20;;;;;;5023680;28;21052;-77
2023/10/20 11:50:08;;;;;;;1.50;0.93;;;16.00;98.20;;;;;;5024670;28;20463;-77
2023/10/20 11:52:37;;;;;;;1.57;0.97;;;16.00;98.20;;;;;;5026910;28;20541;-76
2023/10/20 11:55:05;;;;;;;1.57;0.90;;;15.90;98.20;;;;;;5024787;28;20495;-78
2023/10/20 11:57:32;;;;;;;1.50;0.90;;;16.00;98.20;;;;;;5021593;28;20586;-78
2023/10/20 12:00:01;;;;;;;1.50;0.90;;;16.00;98.20;;;;;;5024255;28;20821;-77
2023/10/20 12:02:28;;;;;;;1.50;1.00;;;16.00;98.20;;;;;;5024849;28;20524;-77
2023/10/20 12:04:55;;;;;;;1.53;1.00;;;15.90;98.20;;;;;;5028520;28;20452;-78
2023/10/20 12:07:22;;;;;;;1.57;1.00;;;16.00;98.20;;;;;;5011703;28;21025;-78
2023/10/20 12:09:50;;;;;;;1.53;1.00;;;16.00;98.20;;;;;;5021422;28;21047;-78
2023/10/20 12:12:17;;;;;;;1.50;1.00;;;15.90;98.20;;;;;;5021119;28;20479;-78
2023/10/20 12:14:44;;;;;;;1.50;0.90;;;15.90;98.20;;;;;;5027751;28;20553;-77
2023/10/20 12:17:11;;;;;;;1.50;0.93;;;15.90;98.20;;;;;;5022621;28;20658;-77
2023/10/20 12:19:38;;;;;;;1.53;1.00;;;15.90;98.20;;;;;;5029712;28;20464;-78
2023/10/20 12:22:05;;;;;;;1.53;1.00;;;15.90;98.20;;;;;;5025432;28;20486;-78
2023/10/20 12:24:32;;;;;;;1.50;0.90;;;16.00;98.20;;;;;;5030027;28;20467;-77
2023/10/20 12:27:00;;;;;;;1.50;0.90;;;16.00;98.20;;;;;;5024855;28;20508;-77
2023/10/20 12:29:28;;;;;;;1.60;1.00;;;16.00;98.20;;;;;;5030187;28;20628;-78
2023/10/20 12:31:56;;;;;;;1.50;1.00;;;15.90;98.20;;;;;;5016509;28;20495;-77
2023/10/20 12:34:23;;;;;;;1.57;1.00;;;15.90;98.20;;;;;;5025240;28;20494;-77
2023/10/20 12:36:50;;;;;;;1.50;1.00;;;16.00;98.20;;;;;;5016812;28;20478;-77
2023/10/20 12:39:18;;;;;;;1.60;1.20;;;16.00;98.20;;;;;;5026132;28;20478;-78
2023/10/20 12:41:45;;;;;;;1.50;1.00;;;16.00;98.20;;;;;;5021290;28;20497;-77
2023/10/20 12:44:14;;;;;;;1.60;1.00;;;16.00;98.20;;;;;;5028896;28;20832;-77
2023/10/20 12:46:41;;;;;;;1.53;1.00;;;16.00;98.20;;;;;;5016559;28;20483;-78
2023/10/20 12:49:08;;;;;;;1.53;0.90;;;16.10;98.20;;;;;;5031666;28;20973;-77
2023/10/20 12:51:36;;;;;;;1.53;1.00;;;16.10;98.20;;;;;;5018191;28;20500;-76
2023/10/20 12:54:03;;;;;;;1.57;1.00;;;16.10;98.20;;;;;;5031426;28;20455;-77
2023/10/20 12:56:30;;;;;;;2.80;2.60;;;16.10;98.20;;;;;;5014187;28;20583;-77
2023/10/20 12:58:58;;;;;;;1.50;1.00;;;16.10;98.20;;;;;;5028860;28;20532;-77
2023/10/20 13:01:26;;;;;;;1.50;0.90;;;16.10;98.20;;;;;;5016258;28;20537;-76
2023/10/20 13:03:53;;;;;;;1.53;0.90;;;16.10;98.20;;;;;;5029799;28;20824;-76
2023/10/20 13:06:20;;;;;;;1.60;1.00;;;16.10;98.20;;;;;;5011172;28;20478;-76
2023/10/20 13:08:47;;;;;;;1.93;1.73;;;16.10;98.20;;;;;;5026254;28;20477;-76
2023/10/20 13:11:14;;;;;;;1.50;0.93;;;16.10;98.20;;;;;;5017318;28;20486;-77
2023/10/20 13:13:41;;;;;;;1.57;0.90;;;16.10;98.20;;;;;;5034978;28;20459;-77